Time;durP1;ratioP1;P1;durP2;ratioP2;P2;SDS_P1;SDS_P2;PMS_P1;PMS_P2;Temp;Humidity;BMP_temperature;BMP_pressure;BME280_temperature;BME280_humidity;BME280_pressure;Samples;Min_cycle;Max_cycle;Signal;HPM_P1;HPM_P2
2021/11/26 00:00:58;;;;;;;6.32;3.63;;;6.80;99.90;;;;;;4979415;28;20526;-79
2021/11/26 00:03:24;;;;;;;7.32;3.58;;;6.70;99.90;;;;;;4979680;28;20178;-79
2021/11/26 00:05:50;;;;;;;9.15;3.97;;;6.80;99.90;;;;;;4978077;28;20193;-79
2021/11/26 00:08:15;;;;;;;9.60;3.88;;;6.80;99.90;;;;;;4978201;28;20592;-79
2021/11/26 00:10:41;;;;;;;7.13;3.80;;;6.80;99.90;;;;;;4979335;28;20201;-80
2021/11/26 00:13:09;;;;;;;7.97;3.58;;;7.00;99.90;;;;;;4979222;28;20174;-80
2021/11/26 00:15:39;;;;;;;4.28;3.30;;;6.90;99.90;;;;;;4978764;28;20225;-80
2021/11/26 00:18:10;;;;;;;11.98;2.65;;;6.90;99.90;;;;;;4979734;28;20248;-79
2021/11/26 00:20:37;;;;;;;8.30;2.63;;;7.00;99.90;;;;;;4979601;28;20169;-79
2021/11/26 00:23:04;;;;;;;8.73;3.08;;;7.00;99.90;;;;;;4979336;28;20559;-79
2021/11/26 00:25:29;;;;;;;6.07;2.40;;;7.10;99.90;;;;;;4979075;28;20774;-79
2021/11/26 00:27:55;;;;;;;7.32;3.67;;;7.10;99.90;;;;;;4979189;28;20256;-78
2021/11/26 00:30:21;;;;;;;3.30;2.42;;;7.00;99.90;;;;;;4979287;28;20216;-79
2021/11/26 00:32:47;;;;;;;6.32;2.92;;;6.90;99.90;;;;;;4960717;28;20170;-79
2021/11/26 00:35:13;;;;;;;10.30;2.17;;;6.90;99.90;;;;;;4976410;28;20189;-79
2021/11/26 00:37:38;;;;;;;12.30;3.40;;;6.90;99.90;;;;;;4975921;28;20166;-79
2021/11/26 00:40:05;;;;;;;8.40;2.10;;;6.90;99.90;;;;;;4976131;28;20170;-79
2021/11/26 00:42:30;;;;;;;3.65;1.75;;;7.10;99.90;;;;;;4975907;28;20166;-79
2021/11/26 00:44:56;;;;;;;5.97;2.53;;;7.10;99.90;;;;;;4974711;28;20181;-79
2021/11/26 00:47:22;;;;;;;5.22;2.00;;;7.30;99.90;;;;;;4976253;28;20189;-79
2021/11/26 00:49:48;;;;;;;7.00;2.22;;;7.30;99.90;;;;;;4975761;28;20236;-79
2021/11/26 00:52:14;;;;;;;5.68;1.88;;;7.30;99.90;;;;;;4975714;28;20177;-79
2021/11/26 00:54:40;;;;;;;3.70;2.00;;;7.30;99.90;;;;;;4975720;28;20170;-79
2021/11/26 00:57:08;;;;;;;3.67;1.98;;;7.30;99.90;;;;;;4975462;28;20190;-79
2021/11/26 00:59:35;;;;;;;5.57;1.75;;;7.40;99.90;;;;;;4976062;28;20172;-79
2021/11/26 01:02:00;;;;;;;6.20;1.75;;;7.30;99.90;;;;;;4958116;28;20224;-79
2021/11/26 01:04:26;;;;;;;3.42;1.40;;;7.40;99.90;;;;;;4975436;28;20170;-80
2021/11/26 01:06:52;;;;;;;4.50;1.88;;;7.50;99.90;;;;;;4973995;28;20277;-79
2021/11/26 01:09:18;;;;;;;2.40;1.83;;;7.50;99.90;;;;;;4976304;28;20209;-80
2021/11/26 01:11:43;;;;;;;2.90;1.83;;;7.30;99.90;;;;;;4977925;28;20234;-78
2021/11/26 01:14:09;;;;;;;6.45;1.83;;;7.30;99.90;;;;;;4979155;28;20268;-79
2021/11/26 01:16:35;;;;;;;8.68;2.30;;;7.40;99.90;;;;;;4979622;28;20241;-81
2021/11/26 01:19:01;;;;;;;2.15;1.65;;;7.50;99.90;;;;;;4979855;28;20170;-79
2021/11/26 01:21:26;;;;;;;10.18;1.92;;;7.40;99.90;;;;;;4979397;28;20174;-79
2021/11/26 01:23:52;;;;;;;13.02;2.10;;;7.50;99.90;;;;;;4979729;28;20664;-79
2021/11/26 01:26:18;;;;;;;3.10;1.98;;;7.50;99.90;;;;;;4978733;28;20526;-79
2021/11/26 01:28:46;;;;;;;3.75;1.77;;;7.60;99.90;;;;;;4978704;28;20212;-79
2021/11/26 01:31:13;;;;;;;1.88;1.00;;;7.70;99.90;;;;;;4989738;28;20181;-79
2021/11/26 01:33:39;;;;;;;4.55;1.40;;;7.80;99.90;;;;;;4994297;28;20257;-79
2021/11/26 01:36:05;;;;;;;4.18;1.42;;;7.50;99.90;;;;;;4980856;28;20189;-79
2021/11/26 01:38:30;;;;;;;2.53;1.65;;;7.40;99.90;;;;;;4979563;28;20177;-79
2021/11/26 01:40:56;;;;;;;3.30;1.42;;;7.20;99.90;;;;;;4977262;28;20180;-79
2021/11/26 01:43:23;;;;;;;4.35;1.58;;;7.40;99.90;;;;;;4978436;28;20703;-79
2021/11/26 01:45:52;;;;;;;4.60;1.30;;;7.40;99.90;;;;;;4976698;28;20249;-78
2021/11/26 01:48:18;;;;;;;6.28;1.58;;;7.50;99.90;;;;;;4983041;28;20162;-78
2021/11/26 01:50:45;;;;;;;3.08;1.80;;;7.60;99.90;;;;;;4977612;28;20212;-78
2021/11/26 01:53:11;;;;;;;4.25;1.65;;;7.50;99.90;;;;;;4976087;28;20197;-78
2021/11/26 01:55:38;;;;;;;1.75;1.25;;;7.50;99.90;;;;;;4975062;28;20186;-78
2021/11/26 01:58:04;;;;;;;4.22;1.38;;;7.50;99.90;;;;;;4974996;28;20640;-78
2021/11/26 02:00:33;;;;;;;4.90;1.55;;;7.60;99.90;;;;;;4957839;28;20166;-78
2021/11/26 02:03:00;;;;;;;2.50;1.75;;;7.30;99.90;;;;;;4975005;28;20201;-78
2021/11/26 02:05:26;;;;;;;4.43;1.50;;;7.20;99.90;;;;;;4974669;28;20198;-78
2021/11/26 02:07:51;;;;;;;2.80;1.25;;;7.30;99.90;;;;;;4975077;28;20196;-78
2021/11/26 02:10:17;;;;;;;2.53;1.35;;;7.30;99.90;;;;;;4974555;28;20694;-78
2021/11/26 02:12:44;;;;;;;4.68;1.38;;;7.30;99.90;;;;;;4958611;28;20237;-79
2021/11/26 02:15:15;;;;;;;1.60;1.40;;;7.20;99.90;;;;;;4975657;28;20170;-79
2021/11/26 02:17:41;;;;;;;2.33;1.85;;;7.10;99.90;;;;;;4957616;28;20170;-78
2021/11/26 02:20:23;;;;;;;3.38;1.85;;;7.20;99.90;;;;;;4975470;28;20600;-79
2021/11/26 02:22:49;;;;;;;3.13;2.05;;;7.30;99.90;;;;;;4975670;28;20182;-79
2021/11/26 02:25:15;;;;;;;8.75;2.75;;;7.30;99.90;;;;;;4975453;28;20185;-78
2021/11/26 02:27:42;;;;;;;5.00;2.80;;;7.40;99.90;;;;;;4957479;28;20196;-79
2021/11/26 02:30:16;;;;;;;5.60;3.00;;;7.30;99.90;;;;;;4974931;28;20209;-79
2021/11/26 02:33:12;;;;;;;2.97;2.15;;;7.20;99.90;;;;;;4975503;28;20623;-79
2021/11/26 02:35:39;;;;;;;8.25;3.13;;;7.40;99.90;;;;;;4975069;28;20193;-79
2021/11/26 02:38:11;;;;;;;5.70;3.47;;;7.50;99.90;;;;;;4974831;28;20158;-80
2021/11/26 02:40:38;;;;;;;3.88;2.42;;;7.40;99.90;;;;;;4958110;28;20166;-79
2021/11/26 02:43:04;;;;;;;7.55;2.65;;;7.40;99.90;;;;;;4975012;28;20173;-79
2021/11/26 02:45:31;;;;;;;9.13;3.15;;;7.40;99.90;;;;;;4974648;28;20197;-78
2021/11/26 02:47:57;;;;;;;11.27;3.03;;;7.50;99.90;;;;;;4974811;28;20198;-78
2021/11/26 02:50:25;;;;;;;7.05;3.35;;;7.40;99.90;;;;;;4957891;28;20209;-78
2021/11/26 02:52:51;;;;;;;5.75;3.20;;;7.50;99.90;;;;;;4958122;28;20166;-78
2021/11/26 02:55:20;;;;;;;3.40;2.40;;;7.50;99.90;;;;;;4957312;28;20197;-78
2021/11/26 02:57:46;;;;;;;9.10;2.88;;;7.50;99.90;;;;;;4974584;28;20639;-78
2021/11/26 03:00:15;;;;;;;7.55;3.20;;;7.40;99.90;;;;;;4973636;28;20221;-78
2021/11/26 03:02:41;;;;;;;8.73;2.58;;;7.40;99.90;;;;;;4974459;28;20173;-79
2021/11/26 03:05:07;;;;;;;14.77;2.85;;;7.30;99.90;;;;;;4974350;28;20170;-79
2021/11/26 03:07:32;;;;;;;4.22;2.55;;;7.30;99.90;;;;;;4957628;28;20166;-79
2021/11/26 03:09:58;;;;;;;10.27;2.88;;;7.40;99.90;;;;;;4974421;28;20335;-79
2021/11/26 03:12:24;;;;;;;11.73;4.22;;;7.20;99.90;;;;;;4974512;28;20678;-78
2021/11/26 03:14:50;;;;;;;3.90;2.70;;;7.20;99.90;;;;;;4972546;28;20626;-78
2021/11/26 03:17:16;;;;;;;13.77;3.65;;;7.20;99.90;;;;;;4973477;28;20293;-78
2021/11/26 03:19:41;;;;;;;7.47;3.05;;;7.30;99.90;;;;;;4975211;28;20162;-78
2021/11/26 03:22:07;;;;;;;5.82;3.03;;;7.40;99.90;;;;;;4974367;28;20165;-78
2021/11/26 03:24:33;;;;;;;12.45;4.05;;;7.30;99.90;;;;;;4973732;28;20230;-78
2021/11/26 03:26:59;;;;;;;6.72;2.38;;;7.00;99.90;;;;;;4956987;28;20190;-78
2021/11/26 03:29:25;;;;;;;8.45;3.28;;;7.10;99.90;;;;;;4974099;28;20237;-83
2021/11/26 03:31:51;;;;;;;9.43;2.60;;;7.30;99.90;;;;;;4974116;28;20220;-78
2021/11/26 03:34:16;;;;;;;14.65;3.75;;;7.20;99.90;;;;;;4974164;28;20177;-78
2021/11/26 03:36:42;;;;;;;6.75;2.72;;;7.30;99.90;;;;;;4973779;28;20186;-78
2021/11/26 03:39:08;;;;;;;7.18;3.70;;;7.10;99.90;;;;;;4973652;28;20253;-79
2021/11/26 03:41:34;;;;;;;13.50;3.00;;;7.00;99.90;;;;;;4973940;28;20505;-78
2021/11/26 03:43:59;;;;;;;11.55;2.90;;;7.20;99.90;;;;;;4974065;28;20577;-78
2021/11/26 03:46:25;;;;;;;15.63;2.83;;;7.20;99.90;;;;;;4973708;28;20190;-78
2021/11/26 03:48:51;;;;;;;8.25;3.33;;;7.20;99.90;;;;;;4973704;28;20177;-78
2021/11/26 03:51:16;;;;;;;6.50;2.42;;;7.20;99.90;;;;;;4973817;28;20178;-79
2021/11/26 03:53:42;;;;;;;9.82;3.05;;;7.20;99.90;;;;;;4981664;28;20173;-78
2021/11/26 03:56:08;;;;;;;15.60;3.92;;;7.20;99.90;;;;;;4977174;28;20255;-78
2021/11/26 03:58:34;;;;;;;17.33;2.50;;;7.30;99.90;;;;;;4973564;28;20209;-79
2021/11/26 04:01:00;;;;;;;16.80;3.83;;;7.10;99.90;;;;;;4973664;28;20170;-78
2021/11/26 04:03:25;;;;;;;4.43;2.50;;;7.20;99.90;;;;;;4973270;28;20232;-78
2021/11/26 04:05:51;;;;;;;7.30;3.38;;;7.20;99.90;;;;;;4973235;28;20193;-79
2021/11/26 04:08:17;;;;;;;10.68;3.60;;;7.30;99.90;;;;;;4974288;28;20219;-78
2021/11/26 04:10:42;;;;;;;11.25;3.35;;;7.20;99.90;;;;;;4975912;28;20271;-78
2021/11/26 04:13:09;;;;;;;8.55;2.88;;;7.30;99.90;;;;;;4977525;28;20166;-78
2021/11/26 04:15:37;;;;;;;8.80;2.90;;;7.20;99.90;;;;;;4977371;28;20233;-78
2021/11/26 04:18:04;;;;;;;19.17;3.58;;;7.10;99.90;;;;;;4977163;28;20169;-78
2021/11/26 04:20:30;;;;;;;8.77;2.70;;;7.00;99.90;;;;;;4976823;28;20166;-78
2021/11/26 04:22:56;;;;;;;7.18;3.38;;;7.00;99.90;;;;;;4977284;28;20185;-78
2021/11/26 04:25:22;;;;;;;9.57;3.03;;;7.00;99.90;;;;;;4976059;28;20198;-77
2021/11/26 04:27:49;;;;;;;19.73;4.32;;;6.90;99.90;;;;;;4977117;28;20177;-79
2021/11/26 04:30:16;;;;;;;9.65;3.38;;;7.00;99.90;;;;;;4959332;28;20213;-79
2021/11/26 04:32:41;;;;;;;10.88;3.35;;;7.10;99.90;;;;;;4976897;28;20158;-79
2021/11/26 04:35:09;;;;;;;10.52;3.15;;;7.00;99.90;;;;;;4977175;28;20166;-79
2021/11/26 04:37:35;;;;;;;10.38;3.83;;;7.00;99.90;;;;;;4976880;28;20663;-79
2021/11/26 04:40:02;;;;;;;9.85;3.40;;;6.90;99.90;;;;;;4976955;28;20197;-79
2021/11/26 04:42:28;;;;;;;5.38;3.10;;;7.00;99.90;;;;;;4963029;28;20170;-79
2021/11/26 04:44:54;;;;;;;14.93;3.85;;;7.10;99.90;;;;;;4978092;28;20170;-79
2021/11/26 04:47:21;;;;;;;12.00;3.97;;;7.00;99.90;;;;;;4978548;28;20162;-79
2021/11/26 04:49:47;;;;;;;8.00;3.80;;;7.00;99.90;;;;;;4978245;28;20206;-78
2021/11/26 04:52:13;;;;;;;8.68;3.88;;;6.90;99.90;;;;;;4976412;28;20180;-78
2021/11/26 04:54:38;;;;;;;8.52;3.50;;;7.00;99.90;;;;;;4976095;28;20181;-78
2021/11/26 04:57:04;;;;;;;16.63;3.42;;;6.80;99.90;;;;;;4976157;28;20200;-78
2021/11/26 04:59:30;;;;;;;9.13;4.18;;;6.70;99.90;;;;;;4976300;28;20632;-78
2021/11/26 05:01:56;;;;;;;21.23;3.58;;;6.60;99.90;;;;;;4958406;28;20166;-78
2021/11/26 05:04:21;;;;;;;12.43;3.30;;;6.70;99.90;;;;;;4976071;28;20170;-78
2021/11/26 05:06:47;;;;;;;13.00;4.32;;;6.60;99.90;;;;;;4975779;28;20194;-78
2021/11/26 05:09:13;;;;;;;7.82;3.22;;;6.50;99.90;;;;;;4974671;28;20213;-77
2021/11/26 05:11:39;;;;;;;10.27;3.67;;;6.40;99.90;;;;;;4975849;28;20228;-78
2021/11/26 05:14:05;;;;;;;7.80;3.75;;;6.30;99.90;;;;;;4974476;28;20261;-77
2021/11/26 05:16:32;;;;;;;5.93;3.42;;;6.20;99.90;;;;;;4974577;28;20182;-78
2021/11/26 05:18:58;;;;;;;12.93;3.03;;;6.20;99.90;;;;;;4975584;28;20620;-78
2021/11/26 05:21:24;;;;;;;10.63;3.72;;;6.30;99.90;;;;;;4958615;28;20258;-79
2021/11/26 05:23:50;;;;;;;10.35;4.40;;;6.30;99.90;;;;;;4975835;28;20190;-78
2021/11/26 05:26:15;;;;;;;10.32;3.53;;;6.30;99.90;;;;;;4975757;28;20193;-78
2021/11/26 05:28:41;;;;;;;17.65;4.30;;;6.30;99.90;;;;;;4975930;28;20228;-78
2021/11/26 05:31:08;;;;;;;8.27;3.80;;;6.30;99.90;;;;;;4975852;28;20210;-79
2021/11/26 05:33:33;;;;;;;13.05;4.30;;;6.30;99.90;;;;;;4975471;28;20269;-79
2021/11/26 05:36:00;;;;;;;6.82;3.60;;;6.30;99.90;;;;;;4975403;28;20621;-79
2021/11/26 05:38:26;;;;;;;10.70;3.40;;;6.30;99.90;;;;;;4977842;28;20173;-79
2021/11/26 05:40:52;;;;;;;10.85;3.63;;;6.30;99.90;;;;;;4976836;28;20193;-79
2021/11/26 05:43:18;;;;;;;14.63;4.07;;;6.30;99.90;;;;;;4979078;28;20640;-81
2021/11/26 05:45:44;;;;;;;11.00;4.00;;;6.30;99.90;;;;;;4980989;28;20197;-79
2021/11/26 05:48:11;;;;;;;6.80;2.97;;;6.40;99.90;;;;;;4977212;28;20180;-79
2021/11/26 05:50:37;;;;;;;14.95;3.70;;;6.30;99.90;;;;;;4958722;28;20209;-78
2021/11/26 05:53:03;;;;;;;13.57;4.53;;;6.00;99.90;;;;;;4977501;28;20252;-78
2021/11/26 05:55:33;;;;;;;15.38;3.22;;;6.10;99.90;;;;;;4976494;28;20197;-79
2021/11/26 05:58:00;;;;;;;15.32;4.22;;;6.20;99.90;;;;;;4959165;28;20221;-79
2021/11/26 06:00:28;;;;;;;19.50;3.45;;;6.20;99.90;;;;;;4976159;28;20652;-79
2021/11/26 06:02:55;;;;;;;7.53;3.60;;;6.10;99.90;;;;;;4976319;28;20177;-79
2021/11/26 06:05:21;;;;;;;25.90;3.78;;;6.20;99.90;;;;;;4976682;28;20237;-80
2021/11/26 06:07:47;;;;;;;19.05;4.35;;;6.30;99.90;;;;;;4975731;28;20188;-80
2021/11/26 06:10:14;;;;;;;7.72;3.17;;;6.40;99.90;;;;;;4958810;28;20206;-79
2021/11/26 06:12:42;;;;;;;10.75;3.88;;;6.40;99.90;;;;;;4971154;28;20245;-78
2021/11/26 06:15:09;;;;;;;13.25;4.07;;;6.30;99.90;;;;;;4984436;28;20166;-79
2021/11/26 06:17:35;;;;;;;7.70;2.55;;;6.30;99.90;;;;;;4976996;28;20174;-79
2021/11/26 06:20:01;;;;;;;21.35;2.67;;;6.40;99.90;;;;;;4977026;28;20166;-79
2021/11/26 06:22:27;;;;;;;10.25;3.28;;;6.40;99.90;;;;;;4975341;28;20591;-79
2021/11/26 06:24:53;;;;;;;19.23;3.25;;;6.10;99.90;;;;;;4975865;28;20633;-81
2021/11/26 06:27:24;;;;;;;10.02;3.28;;;5.90;99.90;;;;;;4975884;28;20254;-81
2021/11/26 06:29:50;;;;;;;15.90;4.93;;;6.10;99.90;;;;;;4960082;28;20676;-80
2021/11/26 06:32:15;;;;;;;9.20;3.00;;;6.10;99.90;;;;;;4975687;28;20170;-79
2021/11/26 06:34:41;;;;;;;6.45;2.65;;;6.10;99.90;;;;;;4976711;28;20585;-79
2021/11/26 06:37:07;;;;;;;10.98;3.50;;;6.20;99.90;;;;;;4976224;28;20269;-80
2021/11/26 06:39:33;;;;;;;9.05;3.35;;;6.10;99.90;;;;;;4974150;28;20178;-78
2021/11/26 06:41:59;;;;;;;17.58;3.88;;;5.90;99.90;;;;;;4977711;28;20217;-79
2021/11/26 06:44:25;;;;;;;12.70;3.15;;;6.00;99.90;;;;;;4976363;28;20174;-79
2021/11/26 06:46:51;;;;;;;10.07;2.85;;;6.00;99.90;;;;;;4975911;28;20549;-79
2021/11/26 06:49:16;;;;;;;9.88;3.33;;;6.00;99.90;;;;;;4974065;28;20232;-79
2021/11/26 06:51:42;;;;;;;18.08;4.00;;;6.00;99.90;;;;;;4976409;28;20269;-79
2021/11/26 06:54:08;;;;;;;7.35;2.90;;;6.00;99.90;;;;;;4974862;28;20165;-80
2021/11/26 06:56:34;;;;;;;14.88;3.47;;;6.00;99.90;;;;;;4975218;28;20240;-80
2021/11/26 06:59:00;;;;;;;15.30;3.50;;;6.10;99.90;;;;;;4975550;28;20636;-82
2021/11/26 07:01:26;;;;;;;12.10;3.20;;;6.00;99.90;;;;;;4973310;28;20741;-78
2021/11/26 07:03:54;;;;;;;12.20;3.67;;;5.80;99.90;;;;;;4973756;28;20169;-79
2021/11/26 07:06:20;;;;;;;15.38;3.90;;;5.80;99.90;;;;;;4955540;28;20563;-79
2021/11/26 07:08:46;;;;;;;7.93;3.53;;;5.70;99.90;;;;;;4973268;28;20267;-83
2021/11/26 07:11:12;;;;;;;15.23;3.65;;;5.70;99.90;;;;;;4973554;28;20197;-80
2021/11/26 07:13:38;;;;;;;12.30;3.42;;;5.80;99.90;;;;;;4972127;28;20173;-80
2021/11/26 07:16:04;;;;;;;13.65;3.83;;;5.70;99.90;;;;;;4974337;28;20190;-81
2021/11/26 07:18:30;;;;;;;9.93;3.45;;;5.90;99.90;;;;;;4960209;28;20173;-79
2021/11/26 07:20:55;;;;;;;13.43;3.90;;;5.80;99.90;;;;;;4977544;28;20687;-78
2021/11/26 07:23:21;;;;;;;18.83;4.70;;;6.10;99.90;;;;;;4974618;28;20188;-78
2021/11/26 07:25:46;;;;;;;13.85;3.88;;;6.00;99.90;;;;;;4973923;28;20201;-82
2021/11/26 07:28:12;;;;;;;23.40;3.95;;;5.80;99.90;;;;;;4975366;28;20193;-85
2021/11/26 07:30:39;;;;;;;12.32;4.07;;;5.60;99.90;;;;;;4976278;28;20216;-79
2021/11/26 07:33:06;;;;;;;14.10;4.57;;;5.70;99.90;;;;;;4974304;28;20196;-81
2021/11/26 07:35:32;;;;;;;20.55;4.72;;;5.60;99.90;;;;;;4975919;28;20583;-81
2021/11/26 07:38:00;;;;;;;16.55;3.85;;;5.70;99.90;;;;;;4975551;28;20166;-83
2021/11/26 07:40:25;;;;;;;14.75;3.40;;;5.80;99.90;;;;;;4964457;28;20252;-81
2021/11/26 07:42:51;;;;;;;16.67;4.18;;;5.80;99.90;;;;;;4976013;28;20278;-81
2021/11/26 07:45:17;;;;;;;13.82;3.58;;;5.90;99.90;;;;;;4976019;28;20197;-80
2021/11/26 07:47:43;;;;;;;17.52;4.10;;;5.90;99.90;;;;;;4976726;28;20170;-81
2021/11/26 07:50:11;;;;;;;15.52;3.95;;;5.90;99.90;;;;;;4975716;28;20256;-77
2021/11/26 07:52:41;;;;;;;15.85;3.95;;;5.90;99.90;;;;;;4958769;28;20232;-79
2021/11/26 07:55:07;;;;;;;10.93;3.60;;;5.70;99.90;;;;;;4976744;28;20502;-79
2021/11/26 07:57:35;;;;;;;15.35;3.63;;;5.70;99.90;;;;;;4976894;28;20167;-80
2021/11/26 08:00:00;;;;;;;12.25;2.95;;;5.90;99.90;;;;;;4976032;28;20178;-80
2021/11/26 08:02:26;;;;;;;19.00;3.50;;;5.90;99.90;;;;;;4975705;28;20249;-79
2021/11/26 08:04:51;;;;;;;13.85;3.33;;;5.80;99.90;;;;;;4977235;28;20169;-79
2021/11/26 08:07:17;;;;;;;8.07;2.70;;;5.90;99.90;;;;;;4959803;28;20193;-79
2021/11/26 08:09:43;;;;;;;13.90;3.83;;;6.00;99.90;;;;;;4977146;28;20686;-79
2021/11/26 08:12:08;;;;;;;11.80;3.50;;;5.90;99.90;;;;;;4977037;28;20169;-79
2021/11/26 08:14:37;;;;;;;8.43;3.13;;;5.80;99.90;;;;;;4976059;28;20166;-78
2021/11/26 08:17:03;;;;;;;12.95;3.13;;;5.80;99.90;;;;;;4976848;28;20189;-79
2021/11/26 08:19:29;;;;;;;18.95;3.38;;;5.90;99.90;;;;;;4976850;28;20252;-79
2021/11/26 08:21:56;;;;;;;10.70;3.03;;;5.80;99.90;;;;;;4976430;28;20556;-79
2021/11/26 08:24:23;;;;;;;13.18;2.78;;;6.00;99.90;;;;;;4959277;28;20192;-78
2021/11/26 08:26:49;;;;;;;9.10;2.80;;;5.90;99.90;;;;;;4973335;28;20279;-80
2021/11/26 08:29:15;;;;;;;10.73;4.05;;;6.00;99.90;;;;;;4956476;28;20217;-79
2021/11/26 08:31:41;;;;;;;7.40;2.90;;;6.10;99.90;;;;;;4963180;28;20692;-78
2021/11/26 08:34:08;;;;;;;10.70;3.63;;;6.10;99.90;;;;;;4975960;28;20267;-81
2021/11/26 08:36:34;;;;;;;8.18;3.40;;;6.10;99.90;;;;;;4969888;28;20197;-77
2021/11/26 08:39:01;;;;;;;11.10;3.88;;;6.00;99.90;;;;;;4983881;28;20257;-77
2021/11/26 08:41:27;;;;;;;18.15;3.67;;;5.90;99.90;;;;;;4974577;28;20177;-82
2021/11/26 08:43:54;;;;;;;14.10;4.43;;;5.90;99.90;;;;;;4972157;28;20185;-76
2021/11/26 08:46:20;;;;;;;7.18;3.03;;;6.00;99.90;;;;;;4972570;28;20201;-77
2021/11/26 08:48:46;;;;;;;10.88;3.05;;;6.00;99.90;;;;;;4957067;28;20197;-77
2021/11/26 08:51:11;;;;;;;6.43;3.30;;;6.10;99.90;;;;;;4975045;28;20256;-79
2021/11/26 08:53:43;;;;;;;17.80;3.40;;;6.20;99.90;;;;;;4961632;28;20171;-77
2021/11/26 08:56:09;;;;;;;8.27;2.60;;;6.20;99.90;;;;;;4961517;28;20201;-83
2021/11/26 08:58:36;;;;;;;7.25;2.88;;;6.20;99.90;;;;;;4975035;28;20182;-81
2021/11/26 09:01:03;;;;;;;8.43;2.80;;;6.30;99.90;;;;;;4955174;28;20690;-80
2021/11/26 09:03:29;;;;;;;15.07;4.07;;;6.50;99.90;;;;;;4954299;28;20194;-85
2021/11/26 09:05:55;;;;;;;13.15;3.25;;;6.60;99.90;;;;;;4956391;29;20648;-80
2021/11/26 09:08:21;;;;;;;12.35;2.67;;;6.70;99.90;;;;;;4954693;28;20661;-79
2021/11/26 09:10:47;;;;;;;9.02;3.00;;;6.60;99.90;;;;;;4963650;28;20420;-78
2021/11/26 09:13:15;;;;;;;17.13;3.65;;;6.50;99.90;;;;;;4975148;28;20166;-80
2021/11/26 09:15:41;;;;;;;4.82;2.35;;;6.60;99.90;;;;;;4971952;28;20194;-79
2021/11/26 09:18:08;;;;;;;9.13;2.88;;;6.60;99.90;;;;;;4975011;28;20174;-79
2021/11/26 09:20:35;;;;;;;11.98;2.38;;;6.50;99.90;;;;;;4975712;28;20170;-83
2021/11/26 09:23:02;;;;;;;12.00;3.03;;;6.50;99.90;;;;;;4976606;28;20228;-84
2021/11/26 09:25:28;;;;;;;6.10;2.85;;;6.40;99.90;;;;;;4979276;28;20202;-81
2021/11/26 09:27:54;;;;;;;4.22;2.17;;;6.60;99.90;;;;;;4976275;28;20173;-83
2021/11/26 09:30:22;;;;;;;6.22;2.38;;;6.70;99.90;;;;;;4975086;28;20205;-79
2021/11/26 09:32:48;;;;;;;18.70;3.05;;;6.60;99.90;;;;;;4975372;28;20174;-79
2021/11/26 09:35:14;;;;;;;10.88;3.00;;;6.60;99.90;;;;;;4975827;28;20197;-83
2021/11/26 09:37:40;;;;;;;8.40;3.10;;;6.70;99.90;;;;;;4958832;28;20180;-81
2021/11/26 09:40:08;;;;;;;11.20;2.88;;;6.80;99.90;;;;;;4975456;28;20252;-86
2021/11/26 09:42:35;;;;;;;6.35;3.00;;;6.80;99.90;;;;;;4975704;28;20197;-85
2021/11/26 09:45:01;;;;;;;4.43;2.22;;;6.60;99.90;;;;;;4975374;28;20546;-82
2021/11/26 09:47:28;;;;;;;22.17;3.50;;;6.60;99.90;;;;;;4975643;28;20162;-81
2021/11/26 09:49:54;;;;;;;7.93;3.33;;;6.50;99.90;;;;;;4975316;28;20292;-83
2021/11/26 09:52:20;;;;;;;15.00;3.78;;;6.60;99.90;;;;;;4975595;28;20173;-79
2021/11/26 09:54:47;;;;;;;22.73;5.70;;;6.60;99.90;;;;;;4974074;28;20193;-82
2021/11/26 09:57:14;;;;;;;8.35;4.18;;;6.80;99.90;;;;;;4975027;28;20196;-83
2021/11/26 09:59:42;;;;;;;7.53;2.97;;;6.50;99.90;;;;;;4957845;28;20180;-77
2021/11/26 10:02:15;;;;;;;10.38;3.00;;;6.60;99.90;;;;;;4956647;28;20244;-78
2021/11/26 10:04:42;;;;;;;8.93;3.05;;;6.60;99.90;;;;;;4957430;28;20528;-78
2021/11/26 10:07:08;;;;;;;7.47;3.20;;;6.70;99.90;;;;;;4973527;28;20186;-83
2021/11/26 10:09:38;;;;;;;12.40;3.70;;;6.60;99.90;;;;;;4957242;28;20206;-78
2021/11/26 10:12:11;;;;;;;12.93;3.05;;;6.60;99.90;;;;;;4974830;28;20170;-80
2021/11/26 10:14:43;;;;;;;13.20;3.25;;;6.50;99.90;;;;;;4974754;28;20173;-85
2021/11/26 10:17:20;;;;;;;10.40;3.70;;;6.40;99.90;;;;;;4958273;28;20193;-81
2021/11/26 10:19:55;;;;;;;6.40;2.90;;;6.50;99.90;;;;;;4976643;28;20178;-86
2021/11/26 10:22:28;;;;;;;9.07;3.30;;;6.40;99.90;;;;;;4975274;28;20640;-85
2021/11/26 10:25:13;;;;;;;10.98;2.53;;;6.40;99.90;;;;;;4974144;28;20177;-81
2021/11/26 10:27:41;;;;;;;7.70;3.30;;;6.30;99.90;;;;;;4974678;28;20166;-81
2021/11/26 10:30:20;;;;;;;3.72;1.90;;;6.30;99.90;;;;;;4957536;28;20209;-82
2021/11/26 10:33:12;;;;;;;17.02;2.67;;;6.30;99.90;;;;;;4949836;28;20580;-82
2021/11/26 10:35:43;;;;;;;3.20;2.58;;;6.40;99.90;;;;;;4955852;28;20218;-83
2021/11/26 10:38:15;;;;;;;7.50;2.47;;;6.30;99.90;;;;;;4951882;28;20652;-80
2021/11/26 10:40:50;;;;;;;5.25;2.80;;;6.30;99.90;;;;;;4958630;28;20174;-82
2021/11/26 10:43:28;;;;;;;13.90;3.25;;;6.00;99.90;;;;;;4937752;29;20205;-81
2021/11/26 10:49:08;;;;;;;10.77;4.03;;;6.10;99.90;;;;;;4939461;29;20188;-79
2021/11/26 10:51:56;;;;;;;18.20;5.45;;;6.20;99.90;;;;;;4963835;29;20194;-80
2021/11/26 10:59:50;;;;;;;6.68;3.33;;;6.30;99.90;;;;;;4962564;28;20698;-82
2021/11/26 11:02:38;;;;;;;12.60;5.38;;;6.10;99.90;;;;;;4973863;28;20252;-85
2021/11/26 11:05:06;;;;;;;13.52;5.28;;;6.10;99.90;;;;;;4973512;28;20209;-79
2021/11/26 11:07:45;;;;;;;11.18;4.05;;;6.30;99.90;;;;;;4973525;28;20261;-79
2021/11/26 11:10:23;;;;;;;8.75;3.45;;;6.10;99.90;;;;;;4972691;28;20252;-79
2021/11/26 11:12:49;;;;;;;21.13;4.13;;;6.10;99.90;;;;;;4973499;28;20683;-77
2021/11/26 11:15:14;;;;;;;10.48;4.78;;;6.10;99.90;;;;;;4975624;28;20194;-78
2021/11/26 11:17:40;;;;;;;17.20;3.97;;;6.20;99.90;;;;;;4976888;28;20157;-82
2021/11/26 11:20:10;;;;;;;16.88;5.65;;;6.20;99.90;;;;;;4978851;28;20237;-79
2021/11/26 11:22:39;;;;;;;9.63;5.82;;;6.30;99.90;;;;;;4978741;28;20181;-86
2021/11/26 11:25:08;;;;;;;9.70;5.18;;;6.30;99.90;;;;;;4960810;28;20873;-86
2021/11/26 11:27:34;;;;;;;13.32;4.95;;;6.40;99.90;;;;;;4976419;28;20168;-76
2021/11/26 11:30:01;;;;;;;11.48;4.88;;;6.20;99.90;;;;;;4978916;28;20201;-79
2021/11/26 11:32:27;;;;;;;9.55;3.88;;;6.20;99.90;;;;;;4974461;28;20177;-85
2021/11/26 11:34:54;;;;;;;24.13;4.30;;;6.10;99.90;;;;;;4977651;28;20185;-80
2021/11/26 11:37:28;;;;;;;10.07;3.83;;;6.30;99.90;;;;;;4976406;28;20640;-83
2021/11/26 11:39:58;;;;;;;8.32;3.63;;;6.30;99.90;;;;;;4976019;28;20202;-85
2021/11/26 11:42:33;;;;;;;12.35;3.85;;;6.20;99.90;;;;;;4974575;28;20532;-82
2021/11/26 11:45:10;;;;;;;16.10;4.45;;;6.20;99.90;;;;;;4960530;28;20241;-84
2021/11/26 11:47:41;;;;;;;7.68;3.70;;;6.10;99.90;;;;;;4977211;28;20666;-84
2021/11/26 11:50:10;;;;;;;6.78;3.40;;;6.10;99.90;;;;;;4987184;28;20240;-80
2021/11/26 11:52:53;;;;;;;9.77;3.55;;;6.10;99.90;;;;;;4986983;28;20173;-81
2021/11/26 11:55:32;;;;;;;7.28;4.13;;;6.20;99.90;;;;;;4984977;28;20738;-80
2021/11/26 11:58:13;;;;;;;10.65;3.90;;;6.20;99.90;;;;;;4984185;28;20765;-84
2021/11/26 12:00:41;;;;;;;5.05;3.33;;;6.30;99.90;;;;;;4978639;28;20183;-85
2021/11/26 12:03:19;;;;;;;11.30;4.35;;;6.20;99.90;;;;;;4985704;28;20166;-84
2021/11/26 12:05:59;;;;;;;8.82;3.92;;;6.20;99.90;;;;;;4987563;28;20186;-79
2021/11/26 12:08:25;;;;;;;3.15;2.85;;;6.00;99.90;;;;;;4984675;28;20265;-80
2021/11/26 12:10:57;;;;;;;8.00;2.97;;;6.10;99.90;;;;;;4980218;28;20197;-80
2021/11/26 12:13:34;;;;;;;5.15;3.20;;;6.00;99.90;;;;;;4978224;28;20575;-79
2021/11/26 12:16:11;;;;;;;6.82;3.00;;;5.90;99.90;;;;;;4976277;28;20726;-77
2021/11/26 12:18:54;;;;;;;7.03;3.88;;;5.80;99.90;;;;;;4974392;28;20523;-80
2021/11/26 12:21:32;;;;;;;7.88;3.83;;;5.80;99.90;;;;;;4976683;28;20174;-78
2021/11/26 12:24:05;;;;;;;10.05;3.08;;;6.00;99.90;;;;;;4956075;28;20316;-83
2021/11/26 12:26:55;;;;;;;7.70;3.55;;;5.80;99.90;;;;;;4957148;28;20199;-83
2021/11/26 12:29:30;;;;;;;7.32;4.05;;;5.90;99.90;;;;;;4973615;28;20197;-83
2021/11/26 12:32:14;;;;;;;5.85;4.05;;;5.80;99.90;;;;;;4975615;28;20177;-86
2021/11/26 12:34:46;;;;;;;5.60;3.50;;;5.90;99.90;;;;;;4976529;28;20308;-81
2021/11/26 12:37:22;;;;;;;7.80;2.90;;;5.80;99.90;;;;;;4977905;28;20550;-86
2021/11/26 12:39:48;;;;;;;6.55;3.85;;;5.80;99.90;;;;;;4977893;28;20533;-85
2021/11/26 12:42:16;;;;;;;8.48;3.40;;;5.80;99.90;;;;;;4976866;28;20166;-80
2021/11/26 12:44:42;;;;;;;4.03;3.05;;;5.90;99.90;;;;;;4976868;28;20166;-78
2021/11/26 12:47:13;;;;;;;12.48;3.42;;;6.00;99.90;;;;;;4976659;28;20202;-80
2021/11/26 12:52:11;;;;;;;13.35;3.97;;;6.10;99.90;;;;;;4976835;28;20178;-85
2021/11/26 12:54:40;;;;;;;5.57;3.50;;;6.00;99.90;;;;;;4977334;28;20170;-86
2021/11/26 12:57:21;;;;;;;9.02;3.22;;;5.90;99.90;;;;;;4960385;28;20197;-83
2021/11/26 13:00:00;;;;;;;5.75;3.72;;;5.90;99.90;;;;;;4979494;28;20166;-81
2021/11/26 13:02:34;;;;;;;6.55;3.83;;;6.10;99.90;;;;;;4978298;28;20269;-78
2021/11/26 13:05:20;;;;;;;9.27;3.00;;;6.20;99.90;;;;;;4978105;28;20174;-81
2021/11/26 13:07:47;;;;;;;9.43;3.60;;;6.10;99.90;;;;;;4979924;28;20165;-78